sensor_id;sensor_type;location;lat;lon;timestamp;temperature;humidity
802;DHT22;383;48.766;9.270;2022-09-24T00:00:44;12.70;95.80
802;DHT22;383;48.766;9.270;2022-09-24T00:03:17;12.80;95.50
802;DHT22;383;48.766;9.270;2022-09-24T00:05:44;12.80;95.30
802;DHT22;383;48.766;9.270;2022-09-24T00:08:12;12.80;95.30
802;DHT22;383;48.766;9.270;2022-09-24T00:10:41;12.90;95.30
802;DHT22;383;48.766;9.270;2022-09-24T00:13:10;12.80;95.40
802;DHT22;383;48.766;9.270;2022-09-24T00:15:38;12.80;95.50
802;DHT22;383;48.766;9.270;2022-09-24T00:18:06;12.70;95.70
802;DHT22;383;48.766;9.270;2022-09-24T00:20:36;12.70;96.00
802;DHT22;383;48.766;9.270;2022-09-24T00:23:04;12.70;96.00
802;DHT22;383;48.766;9.270;2022-09-24T00:25:31;12.80;96.00
802;DHT22;383;48.766;9.270;2022-09-24T00:28:16;12.80;96.10
802;DHT22;383;48.766;9.270;2022-09-24T00:30:43;12.80;96.10
802;DHT22;383;48.766;9.270;2022-09-24T00:33:11;12.80;96.40
802;DHT22;383;48.766;9.270;2022-09-24T00:35:38;12.80;96.60
802;DHT22;383;48.766;9.270;2022-09-24T00:38:06;12.90;96.80
802;DHT22;383;48.766;9.270;2022-09-24T00:40:35;13.00;97.00
802;DHT22;383;48.766;9.270;2022-09-24T00:43:21;13.00;97.00
802;DHT22;383;48.766;9.270;2022-09-24T00:45:49;12.90;97.20
802;DHT22;383;48.766;9.270;2022-09-24T00:48:18;13.00;97.00
802;DHT22;383;48.766;9.270;2022-09-24T00:50:45;13.00;96.90
802;DHT22;383;48.766;9.270;2022-09-24T00:53:15;13.10;96.50
802;DHT22;383;48.766;9.270;2022-09-24T00:55:45;13.00;96.60
802;DHT22;383;48.766;9.270;2022-09-24T00:58:13;13.00;96.60
802;DHT22;383;48.766;9.270;2022-09-24T01:00:40;13.00;96.40
802;DHT22;383;48.766;9.270;2022-09-24T01:03:12;13.00;96.00
802;DHT22;383;48.766;9.270;2022-09-24T01:05:41;13.00;96.20
802;DHT22;383;48.766;9.270;2022-09-24T01:08:10;13.00;96.40
802;DHT22;383;48.766;9.270;2022-09-24T01:10:56;13.00;96.20
802;DHT22;383;48.766;9.270;2022-09-24T01:13:36;12.90;96.50
802;DHT22;383;48.766;9.270;2022-09-24T01:16:11;12.90;96.50
802;DHT22;383;48.766;9.270;2022-09-24T01:18:45;12.90;96.40
802;DHT22;383;48.766;9.270;2022-09-24T01:21:25;12.90;96.30
802;DHT22;383;48.766;9.270;2022-09-24T01:24:15;12.80;96.40
802;DHT22;383;48.766;9.270;2022-09-24T01:26:55;12.80;96.60
802;DHT22;383;48.766;9.270;2022-09-24T01:29:49;12.80;96.40
802;DHT22;383;48.766;9.270;2022-09-24T01:32:22;12.70;96.50
802;DHT22;383;48.766;9.270;2022-09-24T01:34:54;12.70;96.30
802;DHT22;383;48.766;9.270;2022-09-24T01:37:24;12.70;96.40
802;DHT22;383;48.766;9.270;2022-09-24T01:39:53;12.70;96.40
802;DHT22;383;48.766;9.270;2022-09-24T01:42:22;12.60;96.60
802;DHT22;383;48.766;9.270;2022-09-24T01:44:53;12.50;96.60
802;DHT22;383;48.766;9.270;2022-09-24T01:47:24;12.40;96.90
802;DHT22;383;48.766;9.270;2022-09-24T01:49:54;12.40;96.90
802;DHT22;383;48.766;9.270;2022-09-24T01:52:24;12.30;96.90
802;DHT22;383;48.766;9.270;2022-09-24T01:54:54;12.30;96.90
802;DHT22;383;48.766;9.270;2022-09-24T01:57:23;12.30;96.90
802;DHT22;383;48.766;9.270;2022-09-24T01:59:56;12.20;97.10
802;DHT22;383;48.766;9.270;2022-09-24T02:02:27;12.10;97.10
802;DHT22;383;48.766;9.270;2022-09-24T02:04:58;12.10;97.10
802;DHT22;383;48.766;9.270;2022-09-24T02:07:33;12.10;97.10
802;DHT22;383;48.766;9.270;2022-09-24T02:10:00;12.10;96.80
802;DHT22;383;48.766;9.270;2022-09-24T02:12:31;12.10;96.90
802;DHT22;383;48.766;9.270;2022-09-24T02:15:05;12.00;97.30
802;DHT22;383;48.766;9.270;2022-09-24T02:17:35;12.00;97.50
802;DHT22;383;48.766;9.270;2022-09-24T02:20:07;11.90;97.80
802;DHT22;383;48.766;9.270;2022-09-24T02:22:35;11.90;97.90
802;DHT22;383;48.766;9.270;2022-09-24T02:25:05;11.90;97.90
802;DHT22;383;48.766;9.270;2022-09-24T02:27:34;11.90;97.90
802;DHT22;383;48.766;9.270;2022-09-24T02:30:05;11.90;97.60
802;DHT22;383;48.766;9.270;2022-09-24T02:32:35;11.90;97.70
802;DHT22;383;48.766;9.270;2022-09-24T02:35:04;11.90;97.80
802;DHT22;383;48.766;9.270;2022-09-24T02:37:34;11.90;97.80
802;DHT22;383;48.766;9.270;2022-09-24T02:40:02;11.80;98.10
802;DHT22;383;48.766;9.270;2022-09-24T02:42:30;11.90;98.30
802;DHT22;383;48.766;9.270;2022-09-24T02:44:57;12.00;97.90
802;DHT22;383;48.766;9.270;2022-09-24T02:47:26;11.90;97.90
802;DHT22;383;48.766;9.270;2022-09-24T02:49:53;11.90;98.10
802;DHT22;383;48.766;9.270;2022-09-24T02:52:20;11.90;97.90
802;DHT22;383;48.766;9.270;2022-09-24T02:54:47;11.90;98.30
802;DHT22;383;48.766;9.270;2022-09-24T02:57:14;11.90;98.50
802;DHT22;383;48.766;9.270;2022-09-24T02:59:41;11.90;98.60
802;DHT22;383;48.766;9.270;2022-09-24T03:02:08;11.90;98.50
802;DHT22;383;48.766;9.270;2022-09-24T03:04:36;12.00;98.30
802;DHT22;383;48.766;9.270;2022-09-24T03:07:03;12.00;98.30
802;DHT22;383;48.766;9.270;2022-09-24T03:09:30;12.00;98.20
802;DHT22;383;48.766;9.270;2022-09-24T03:11:57;12.00;98.20
802;DHT22;383;48.766;9.270;2022-09-24T03:14:25;12.10;98.30
802;DHT22;383;48.766;9.270;2022-09-24T03:16:51;12.10;98.40
802;DHT22;383;48.766;9.270;2022-09-24T03:19:18;12.20;98.20
802;DHT22;383;48.766;9.270;2022-09-24T03:21:46;12.20;98.10
802;DHT22;383;48.766;9.270;2022-09-24T03:24:13;12.10;98.40
802;DHT22;383;48.766;9.270;2022-09-24T03:26:39;12.10;98.40
802;DHT22;383;48.766;9.270;2022-09-24T03:29:07;12.10;99.00
802;DHT22;383;48.766;9.270;2022-09-24T03:31:34;12.10;98.80
802;DHT22;383;48.766;9.270;2022-09-24T03:33:59;12.20;98.80
802;DHT22;383;48.766;9.270;2022-09-24T03:36:26;12.20;99.00
802;DHT22;383;48.766;9.270;2022-09-24T03:38:55;12.20;98.90
802;DHT22;383;48.766;9.270;2022-09-24T03:41:23;12.20;99.00
802;DHT22;383;48.766;9.270;2022-09-24T03:43:50;12.20;98.90
802;DHT22;383;48.766;9.270;2022-09-24T03:46:16;12.30;98.80
802;DHT22;383;48.766;9.270;2022-09-24T03:48:43;12.30;98.50
802;DHT22;383;48.766;9.270;2022-09-24T03:51:13;12.30;98.60
802;DHT22;383;48.766;9.270;2022-09-24T03:53:40;12.40;98.40
802;DHT22;383;48.766;9.270;2022-09-24T03:56:08;12.50;98.20
802;DHT22;383;48.766;9.270;2022-09-24T03:58:36;12.50;98.00
802;DHT22;383;48.766;9.270;2022-09-24T04:01:04;12.50;98.00
802;DHT22;383;48.766;9.270;2022-09-24T04:03:31;12.50;98.00
802;DHT22;383;48.766;9.270;2022-09-24T04:05:58;12.60;97.90
802;DHT22;383;48.766;9.270;2022-09-24T04:08:24;12.60;98.00
802;DHT22;383;48.766;9.270;2022-09-24T04:10:51;12.60;97.90
802;DHT22;383;48.766;9.270;2022-09-24T04:13:21;12.70;97.90
802;DHT22;383;48.766;9.270;2022-09-24T04:15:48;12.70;97.80
802;DHT22;383;48.766;9.270;2022-09-24T04:18:16;12.70;97.80
802;DHT22;383;48.766;9.270;2022-09-24T04:20:43;12.80;97.70
802;DHT22;383;48.766;9.270;2022-09-24T04:23:10;12.80;97.60
802;DHT22;383;48.766;9.270;2022-09-24T04:25:37;12.80;97.60
802;DHT22;383;48.766;9.270;2022-09-24T04:28:05;12.90;97.20
802;DHT22;383;48.766;9.270;2022-09-24T04:30:35;12.90;97.20
802;DHT22;383;48.766;9.270;2022-09-24T04:33:02;12.80;97.20
802;DHT22;383;48.766;9.270;2022-09-24T04:35:30;12.90;97.30
802;DHT22;383;48.766;9.270;2022-09-24T04:37:58;12.90;97.30
802;DHT22;383;48.766;9.270;2022-09-24T04:40:26;12.90;97.30
802;DHT22;383;48.766;9.270;2022-09-24T04:42:53;13.00;96.90
802;DHT22;383;48.766;9.270;2022-09-24T04:45:20;13.00;96.60
802;DHT22;383;48.766;9.270;2022-09-24T04:47:51;13.00;96.80
802;DHT22;383;48.766;9.270;2022-09-24T04:50:22;13.00;96.60
802;DHT22;383;48.766;9.270;2022-09-24T04:52:49;13.00;96.50
802;DHT22;383;48.766;9.270;2022-09-24T04:55:16;13.00;96.30
802;DHT22;383;48.766;9.270;2022-09-24T04:57:44;13.00;96.00
802;DHT22;383;48.766;9.270;2022-09-24T05:00:14;13.00;95.80
802;DHT22;383;48.766;9.270;2022-09-24T05:02:42;13.00;95.60
802;DHT22;383;48.766;9.270;2022-09-24T05:05:11;13.00;95.50
802;DHT22;383;48.766;9.270;2022-09-24T05:07:39;13.00;95.30
802;DHT22;383;48.766;9.270;2022-09-24T05:10:07;13.00;95.30
802;DHT22;383;48.766;9.270;2022-09-24T05:12:33;13.00;95.40
802;DHT22;383;48.766;9.270;2022-09-24T05:15:00;13.00;95.50
802;DHT22;383;48.766;9.270;2022-09-24T05:17:27;13.00;95.60
802;DHT22;383;48.766;9.270;2022-09-24T05:19:54;12.90;95.60
802;DHT22;383;48.766;9.270;2022-09-24T05:22:23;12.90;95.90
802;DHT22;383;48.766;9.270;2022-09-24T05:24:51;12.90;96.10
802;DHT22;383;48.766;9.270;2022-09-24T05:27:18;12.90;95.70
802;DHT22;383;48.766;9.270;2022-09-24T05:29:46;12.80;95.90
802;DHT22;383;48.766;9.270;2022-09-24T05:32:15;12.80;96.10
802;DHT22;383;48.766;9.270;2022-09-24T05:34:43;12.80;96.10
802;DHT22;383;48.766;9.270;2022-09-24T05:37:10;12.80;96.20
802;DHT22;383;48.766;9.270;2022-09-24T05:39:39;12.90;95.90
802;DHT22;383;48.766;9.270;2022-09-24T05:42:08;12.90;95.70
802;DHT22;383;48.766;9.270;2022-09-24T05:44:35;12.90;96.10
802;DHT22;383;48.766;9.270;2022-09-24T05:47:02;12.90;96.20
802;DHT22;383;48.766;9.270;2022-09-24T05:49:29;13.00;95.60
802;DHT22;383;48.766;9.270;2022-09-24T05:51:56;12.90;95.70
802;DHT22;383;48.766;9.270;2022-09-24T05:54:23;12.90;95.80
802;DHT22;383;48.766;9.270;2022-09-24T05:56:51;12.90;95.80
802;DHT22;383;48.766;9.270;2022-09-24T05:59:18;13.00;95.30
802;DHT22;383;48.766;9.270;2022-09-24T06:01:44;13.00;95.30
802;DHT22;383;48.766;9.270;2022-09-24T06:04:12;13.00;95.40
802;DHT22;383;48.766;9.270;2022-09-24T06:06:39;13.00;95.30
802;DHT22;383;48.766;9.270;2022-09-24T06:09:05;13.10;95.20
802;DHT22;383;48.766;9.270;2022-09-24T06:11:34;13.10;95.20
802;DHT22;383;48.766;9.270;2022-09-24T06:14:02;13.20;94.90
802;DHT22;383;48.766;9.270;2022-09-24T06:16:31;13.10;95.10
802;DHT22;383;48.766;9.270;2022-09-24T06:18:58;13.20;94.90
802;DHT22;383;48.766;9.270;2022-09-24T06:21:24;13.20;95.00
802;DHT22;383;48.766;9.270;2022-09-24T06:23:51;13.30;94.80
802;DHT22;383;48.766;9.270;2022-09-24T06:26:18;13.30;94.70
802;DHT22;383;48.766;9.270;2022-09-24T06:28:45;13.50;94.60
802;DHT22;383;48.766;9.270;2022-09-24T06:31:13;13.60;94.30
802;DHT22;383;48.766;9.270;2022-09-24T06:33:39;13.60;93.80
802;DHT22;383;48.766;9.270;2022-09-24T06:36:07;13.80;93.40
802;DHT22;383;48.766;9.270;2022-09-24T06:38:33;13.80;92.50
802;DHT22;383;48.766;9.270;2022-09-24T06:41:02;13.90;92.80
802;DHT22;383;48.766;9.270;2022-09-24T06:43:29;14.00;91.90
802;DHT22;383;48.766;9.270;2022-09-24T06:45:58;14.10;91.80
802;DHT22;383;48.766;9.270;2022-09-24T06:48:26;14.10;91.80
802;DHT22;383;48.766;9.270;2022-09-24T06:50:53;14.10;92.10
802;DHT22;383;48.766;9.270;2022-09-24T06:53:21;14.20;91.90
802;DHT22;383;48.766;9.270;2022-09-24T06:55:48;14.20;91.50
802;DHT22;383;48.766;9.270;2022-09-24T06:58:16;14.20;91.50
802;DHT22;383;48.766;9.270;2022-09-24T07:00:50;14.30;91.20
802;DHT22;383;48.766;9.270;2022-09-24T07:03:19;14.30;91.10
802;DHT22;383;48.766;9.270;2022-09-24T07:05:47;14.30;91.30
802;DHT22;383;48.766;9.270;2022-09-24T07:08:14;14.40;91.50
802;DHT22;383;48.766;9.270;2022-09-24T07:10:42;14.40;91.00
802;DHT22;383;48.766;9.270;2022-09-24T07:13:10;14.50;90.50
802;DHT22;383;48.766;9.270;2022-09-24T07:15:41;14.60;90.50
802;DHT22;383;48.766;9.270;2022-09-24T07:18:10;14.70;90.10
802;DHT22;383;48.766;9.270;2022-09-24T07:20:37;14.70;89.80
802;DHT22;383;48.766;9.270;2022-09-24T07:23:07;14.80;89.80
802;DHT22;383;48.766;9.270;2022-09-24T07:25:34;14.90;89.30
802;DHT22;383;48.766;9.270;2022-09-24T07:28:02;14.80;89.20
802;DHT22;383;48.766;9.270;2022-09-24T07:30:29;14.80;89.60
802;DHT22;383;48.766;9.270;2022-09-24T07:32:56;14.70;89.70
802;DHT22;383;48.766;9.270;2022-09-24T07:35:23;14.80;89.20
802;DHT22;383;48.766;9.270;2022-09-24T07:37:56;14.80;89.40
802;DHT22;383;48.766;9.270;2022-09-24T07:40:25;14.90;89.90
802;DHT22;383;48.766;9.270;2022-09-24T07:42:52;15.00;90.00
802;DHT22;383;48.766;9.270;2022-09-24T07:45:20;15.00;89.60
802;DHT22;383;48.766;9.270;2022-09-24T07:47:46;15.10;89.60
802;DHT22;383;48.766;9.270;2022-09-24T07:50:14;15.10;89.30
802;DHT22;383;48.766;9.270;2022-09-24T07:52:42;15.30;89.00
802;DHT22;383;48.766;9.270;2022-09-24T07:55:09;15.40;89.30
802;DHT22;383;48.766;9.270;2022-09-24T07:57:37;15.40;89.60
802;DHT22;383;48.766;9.270;2022-09-24T08:00:05;15.60;89.20
802;DHT22;383;48.766;9.270;2022-09-24T08:02:32;15.70;88.50
802;DHT22;383;48.766;9.270;2022-09-24T08:04:59;15.80;87.20
802;DHT22;383;48.766;9.270;2022-09-24T08:07:26;15.90;87.10
802;DHT22;383;48.766;9.270;2022-09-24T08:09:53;16.10;86.00
802;DHT22;383;48.766;9.270;2022-09-24T08:12:20;16.20;85.70
802;DHT22;383;48.766;9.270;2022-09-24T08:14:48;16.30;85.60
802;DHT22;383;48.766;9.270;2022-09-24T08:17:15;16.30;85.50
802;DHT22;383;48.766;9.270;2022-09-24T08:19:42;16.40;84.70
802;DHT22;383;48.766;9.270;2022-09-24T08:22:11;16.40;84.90
802;DHT22;383;48.766;9.270;2022-09-24T08:24:38;16.40;85.10
802;DHT22;383;48.766;9.270;2022-09-24T08:27:05;16.50;85.10
802;DHT22;383;48.766;9.270;2022-09-24T08:29:32;16.50;85.90
802;DHT22;383;48.766;9.270;2022-09-24T08:32:00;16.40;85.30
802;DHT22;383;48.766;9.270;2022-09-24T08:34:27;16.50;84.50
802;DHT22;383;48.766;9.270;2022-09-24T08:36:54;16.60;84.50
802;DHT22;383;48.766;9.270;2022-09-24T08:39:20;16.60;84.90
802;DHT22;383;48.766;9.270;2022-09-24T08:41:53;16.70;84.70
802;DHT22;383;48.766;9.270;2022-09-24T08:44:26;16.90;84.30
802;DHT22;383;48.766;9.270;2022-09-24T08:47:19;16.90;84.50
802;DHT22;383;48.766;9.270;2022-09-24T08:50:00;17.00;84.30
802;DHT22;383;48.766;9.270;2022-09-24T08:52:39;17.10;84.90
802;DHT22;383;48.766;9.270;2022-09-24T08:55:14;17.20;84.70
802;DHT22;383;48.766;9.270;2022-09-24T08:57:49;17.30;84.30
802;DHT22;383;48.766;9.270;2022-09-24T09:00:20;17.50;84.10
802;DHT22;383;48.766;9.270;2022-09-24T09:02:54;17.60;83.70
802;DHT22;383;48.766;9.270;2022-09-24T09:05:38;17.90;82.60
802;DHT22;383;48.766;9.270;2022-09-24T09:08:15;18.00;82.00
802;DHT22;383;48.766;9.270;2022-09-24T09:10:43;18.20;82.20
802;DHT22;383;48.766;9.270;2022-09-24T09:13:14;18.30;81.10
802;DHT22;383;48.766;9.270;2022-09-24T09:15:43;18.40;80.60
802;DHT22;383;48.766;9.270;2022-09-24T09:18:19;18.50;80.30
802;DHT22;383;48.766;9.270;2022-09-24T09:20:48;18.50;80.20
802;DHT22;383;48.766;9.270;2022-09-24T09:23:18;18.60;81.00
802;DHT22;383;48.766;9.270;2022-09-24T09:25:47;18.70;80.40
802;DHT22;383;48.766;9.270;2022-09-24T09:28:18;18.90;79.80
802;DHT22;383;48.766;9.270;2022-09-24T09:30:54;19.10;78.50
802;DHT22;383;48.766;9.270;2022-09-24T09:33:37;19.20;78.30
802;DHT22;383;48.766;9.270;2022-09-24T09:36:20;19.30;77.80
802;DHT22;383;48.766;9.270;2022-09-24T09:38:59;19.40;76.60
802;DHT22;383;48.766;9.270;2022-09-24T09:41:31;19.50;76.10
802;DHT22;383;48.766;9.270;2022-09-24T09:44:08;19.40;76.50
802;DHT22;383;48.766;9.270;2022-09-24T09:46:40;19.40;77.10
802;DHT22;383;48.766;9.270;2022-09-24T09:49:12;19.40;76.90
802;DHT22;383;48.766;9.270;2022-09-24T09:51:41;19.50;77.00
802;DHT22;383;48.766;9.270;2022-09-24T09:54:08;19.40;78.10
802;DHT22;383;48.766;9.270;2022-09-24T09:56:41;19.30;78.50
802;DHT22;383;48.766;9.270;2022-09-24T09:59:16;19.30;77.50
802;DHT22;383;48.766;9.270;2022-09-24T10:01:45;19.30;78.10
802;DHT22;383;48.766;9.270;2022-09-24T10:04:32;19.30;78.60
802;DHT22;383;48.766;9.270;2022-09-24T10:07:06;19.30;78.10
802;DHT22;383;48.766;9.270;2022-09-24T10:09:33;19.30;79.10
802;DHT22;383;48.766;9.270;2022-09-24T10:12:14;19.50;78.70
802;DHT22;383;48.766;9.270;2022-09-24T10:14:42;19.60;78.10
802;DHT22;383;48.766;9.270;2022-09-24T10:17:12;19.60;77.90
802;DHT22;383;48.766;9.270;2022-09-24T10:19:42;19.70;77.10
802;DHT22;383;48.766;9.270;2022-09-24T10:22:16;19.60;77.70
802;DHT22;383;48.766;9.270;2022-09-24T10:24:45;19.70;78.30
802;DHT22;383;48.766;9.270;2022-09-24T10:27:17;19.80;77.80
802;DHT22;383;48.766;9.270;2022-09-24T10:29:47;19.90;77.40
802;DHT22;383;48.766;9.270;2022-09-24T10:32:31;20.00;77.80
802;DHT22;383;48.766;9.270;2022-09-24T10:35:00;20.10;76.20
802;DHT22;383;48.766;9.270;2022-09-24T10:37:28;20.10;76.10
802;DHT22;383;48.766;9.270;2022-09-24T10:39:58;20.10;77.40
802;DHT22;383;48.766;9.270;2022-09-24T10:42:26;20.10;76.60
802;DHT22;383;48.766;9.270;2022-09-24T10:44:54;20.00;77.10
802;DHT22;383;48.766;9.270;2022-09-24T10:47:25;20.10;77.30
802;DHT22;383;48.766;9.270;2022-09-24T10:50:10;20.10;76.90
802;DHT22;383;48.766;9.270;2022-09-24T10:52:45;20.10;77.70
802;DHT22;383;48.766;9.270;2022-09-24T10:55:36;20.10;78.10
802;DHT22;383;48.766;9.270;2022-09-24T10:58:16;20.10;79.80
802;DHT22;383;48.766;9.270;2022-09-24T11:00:55;20.10;79.80
802;DHT22;383;48.766;9.270;2022-09-24T11:03:40;20.10;80.30
802;DHT22;383;48.766;9.270;2022-09-24T11:06:22;20.00;80.30
802;DHT22;383;48.766;9.270;2022-09-24T11:09:03;20.00;80.80
802;DHT22;383;48.766;9.270;2022-09-24T11:11:40;19.90;82.30
802;DHT22;383;48.766;9.270;2022-09-24T11:14:25;19.90;82.80
802;DHT22;383;48.766;9.270;2022-09-24T11:17:09;19.70;83.10
802;DHT22;383;48.766;9.270;2022-09-24T11:23:06;19.10;86.80
802;DHT22;383;48.766;9.270;2022-09-24T11:25:45;18.90;88.00
802;DHT22;383;48.766;9.270;2022-09-24T11:28:24;18.80;89.00
802;DHT22;383;48.766;9.270;2022-09-24T11:31:03;18.60;90.10
802;DHT22;383;48.766;9.270;2022-09-24T11:33:47;18.50;90.60
802;DHT22;383;48.766;9.270;2022-09-24T11:36:32;18.30;91.60
802;DHT22;383;48.766;9.270;2022-09-24T11:39:17;18.20;92.30
802;DHT22;383;48.766;9.270;2022-09-24T11:41:51;18.10;93.20
802;DHT22;383;48.766;9.270;2022-09-24T11:47:24;17.90;93.00
802;DHT22;383;48.766;9.270;2022-09-24T11:50:13;17.70;93.80
802;DHT22;383;48.766;9.270;2022-09-24T11:52:45;17.70;94.00
802;DHT22;383;48.766;9.270;2022-09-24T11:55:17;17.60;94.20
802;DHT22;383;48.766;9.270;2022-09-24T11:57:51;17.60;94.70
802;DHT22;383;48.766;9.270;2022-09-24T12:00:19;17.60;94.80
802;DHT22;383;48.766;9.270;2022-09-24T12:02:49;17.60;94.80
802;DHT22;383;48.766;9.270;2022-09-24T12:05:24;17.60;94.70
802;DHT22;383;48.766;9.270;2022-09-24T12:07:54;17.60;94.10
802;DHT22;383;48.766;9.270;2022-09-24T12:10:32;17.60;95.30
802;DHT22;383;48.766;9.270;2022-09-24T12:13:05;17.70;94.30
802;DHT22;383;48.766;9.270;2022-09-24T12:15:43;17.60;94.80
802;DHT22;383;48.766;9.270;2022-09-24T12:18:15;17.60;95.40
802;DHT22;383;48.766;9.270;2022-09-24T12:20:47;17.60;96.00
802;DHT22;383;48.766;9.270;2022-09-24T12:23:18;17.70;95.80
802;DHT22;383;48.766;9.270;2022-09-24T12:25:47;17.70;95.70
802;DHT22;383;48.766;9.270;2022-09-24T12:28:18;17.80;96.30
802;DHT22;383;48.766;9.270;2022-09-24T12:31:01;17.90;94.50
802;DHT22;383;48.766;9.270;2022-09-24T12:33:54;17.90;95.10
802;DHT22;383;48.766;9.270;2022-09-24T12:36:30;17.90;95.60
802;DHT22;383;48.766;9.270;2022-09-24T12:39:04;18.00;95.80
802;DHT22;383;48.766;9.270;2022-09-24T12:41:35;18.00;95.70
802;DHT22;383;48.766;9.270;2022-09-24T12:44:10;18.00;95.70
802;DHT22;383;48.766;9.270;2022-09-24T12:46:41;18.00;95.30
802;DHT22;383;48.766;9.270;2022-09-24T12:49:18;18.00;95.50
802;DHT22;383;48.766;9.270;2022-09-24T12:51:45;18.00;95.60
802;DHT22;383;48.766;9.270;2022-09-24T12:54:22;18.00;95.60
802;DHT22;383;48.766;9.270;2022-09-24T12:57:04;18.00;95.10
802;DHT22;383;48.766;9.270;2022-09-24T12:59:31;18.00;95.10
802;DHT22;383;48.766;9.270;2022-09-24T13:02:11;18.00;95.50
802;DHT22;383;48.766;9.270;2022-09-24T13:04:43;18.00;95.70
802;DHT22;383;48.766;9.270;2022-09-24T13:07:28;18.10;95.70
802;DHT22;383;48.766;9.270;2022-09-24T13:09:55;18.10;95.20
802;DHT22;383;48.766;9.270;2022-09-24T13:12:30;18.10;95.20
802;DHT22;383;48.766;9.270;2022-09-24T13:14:59;18.10;95.50
802;DHT22;383;48.766;9.270;2022-09-24T13:17:27;18.10;95.30
802;DHT22;383;48.766;9.270;2022-09-24T13:19:57;18.00;96.10
802;DHT22;383;48.766;9.270;2022-09-24T13:22:27;18.00;96.50
802;DHT22;383;48.766;9.270;2022-09-24T13:25:17;18.10;96.70
802;DHT22;383;48.766;9.270;2022-09-24T13:27:58;18.10;96.50
802;DHT22;383;48.766;9.270;2022-09-24T13:30:33;18.00;96.40
802;DHT22;383;48.766;9.270;2022-09-24T13:33:08;18.00;96.40
802;DHT22;383;48.766;9.270;2022-09-24T13:35:44;18.00;96.30
802;DHT22;383;48.766;9.270;2022-09-24T13:38:19;17.90;96.30
802;DHT22;383;48.766;9.270;2022-09-24T13:40:50;17.90;96.40
802;DHT22;383;48.766;9.270;2022-09-24T13:43:31;17.90;96.70
802;DHT22;383;48.766;9.270;2022-09-24T13:46:04;17.80;97.10
802;DHT22;383;48.766;9.270;2022-09-24T13:48:34;17.80;97.30
802;DHT22;383;48.766;9.270;2022-09-24T13:51:03;17.80;97.60
802;DHT22;383;48.766;9.270;2022-09-24T13:53:33;17.90;96.30
802;DHT22;383;48.766;9.270;2022-09-24T13:56:05;17.90;96.90
802;DHT22;383;48.766;9.270;2022-09-24T13:58:38;17.90;97.40
802;DHT22;383;48.766;9.270;2022-09-24T14:01:11;18.00;97.40
802;DHT22;383;48.766;9.270;2022-09-24T14:03:39;18.00;97.30
802;DHT22;383;48.766;9.270;2022-09-24T14:06:11;18.10;96.20
802;DHT22;383;48.766;9.270;2022-09-24T14:08:40;18.10;95.40
802;DHT22;383;48.766;9.270;2022-09-24T14:11:15;18.00;95.50
802;DHT22;383;48.766;9.270;2022-09-24T14:13:44;17.90;96.40
802;DHT22;383;48.766;9.270;2022-09-24T14:16:14;18.00;96.00
802;DHT22;383;48.766;9.270;2022-09-24T14:18:42;18.10;96.70
802;DHT22;383;48.766;9.270;2022-09-24T14:21:12;18.20;97.10
802;DHT22;383;48.766;9.270;2022-09-24T14:23:42;18.40;96.60
802;DHT22;383;48.766;9.270;2022-09-24T14:26:14;18.50;96.90
802;DHT22;383;48.766;9.270;2022-09-24T14:28:44;18.60;96.70
802;DHT22;383;48.766;9.270;2022-09-24T14:31:11;18.60;96.30
802;DHT22;383;48.766;9.270;2022-09-24T14:33:38;18.70;95.60
802;DHT22;383;48.766;9.270;2022-09-24T14:36:09;18.70;95.00
802;DHT22;383;48.766;9.270;2022-09-24T14:38:46;18.70;93.80
802;DHT22;383;48.766;9.270;2022-09-24T14:41:17;18.70;94.10
802;DHT22;383;48.766;9.270;2022-09-24T14:43:50;18.60;94.50
802;DHT22;383;48.766;9.270;2022-09-24T14:46:20;18.60;94.60
802;DHT22;383;48.766;9.270;2022-09-24T14:48:48;18.60;94.20
802;DHT22;383;48.766;9.270;2022-09-24T14:51:22;18.50;94.50
802;DHT22;383;48.766;9.270;2022-09-24T14:53:57;18.40;94.90
802;DHT22;383;48.766;9.270;2022-09-24T14:56:27;18.40;95.70
802;DHT22;383;48.766;9.270;2022-09-24T14:58:56;18.30;96.00
802;DHT22;383;48.766;9.270;2022-09-24T15:01:28;18.30;96.30
802;DHT22;383;48.766;9.270;2022-09-24T15:03:57;18.30;96.40
802;DHT22;383;48.766;9.270;2022-09-24T15:06:26;18.30;96.50
802;DHT22;383;48.766;9.270;2022-09-24T15:08:59;18.30;96.50
802;DHT22;383;48.766;9.270;2022-09-24T15:11:28;18.30;96.40
802;DHT22;383;48.766;9.270;2022-09-24T15:14:00;18.30;96.40
802;DHT22;383;48.766;9.270;2022-09-24T15:16:34;18.40;96.50
802;DHT22;383;48.766;9.270;2022-09-24T15:19:16;18.40;96.40
802;DHT22;383;48.766;9.270;2022-09-24T15:21:45;18.40;96.40
802;DHT22;383;48.766;9.270;2022-09-24T15:24:13;18.40;96.20
802;DHT22;383;48.766;9.270;2022-09-24T15:26:41;18.50;95.80
802;DHT22;383;48.766;9.270;2022-09-24T15:29:19;18.50;95.70
802;DHT22;383;48.766;9.270;2022-09-24T15:31:48;18.60;95.60
802;DHT22;383;48.766;9.270;2022-09-24T15:34:15;18.60;95.70
802;DHT22;383;48.766;9.270;2022-09-24T15:36:42;18.50;95.70
802;DHT22;383;48.766;9.270;2022-09-24T15:39:09;18.50;95.70
802;DHT22;383;48.766;9.270;2022-09-24T15:41:36;18.50;95.80
802;DHT22;383;48.766;9.270;2022-09-24T15:44:04;18.50;95.70
802;DHT22;383;48.766;9.270;2022-09-24T15:46:32;18.40;95.30
802;DHT22;383;48.766;9.270;2022-09-24T15:48:59;18.40;95.10
802;DHT22;383;48.766;9.270;2022-09-24T15:51:26;18.30;95.50
802;DHT22;383;48.766;9.270;2022-09-24T15:53:53;18.30;95.70
802;DHT22;383;48.766;9.270;2022-09-24T15:56:20;18.30;95.70
802;DHT22;383;48.766;9.270;2022-09-24T15:58:47;18.30;95.70
802;DHT22;383;48.766;9.270;2022-09-24T16:01:15;18.30;95.90
802;DHT22;383;48.766;9.270;2022-09-24T16:03:44;18.30;95.80
802;DHT22;383;48.766;9.270;2022-09-24T16:06:12;18.40;95.20
802;DHT22;383;48.766;9.270;2022-09-24T16:08:40;18.40;95.00
802;DHT22;383;48.766;9.270;2022-09-24T16:11:07;18.40;94.60
802;DHT22;383;48.766;9.270;2022-09-24T16:13:34;18.30;95.20
802;DHT22;383;48.766;9.270;2022-09-24T16:16:04;18.30;95.30
802;DHT22;383;48.766;9.270;2022-09-24T16:18:30;18.20;95.40
802;DHT22;383;48.766;9.270;2022-09-24T16:20:58;18.00;95.30
802;DHT22;383;48.766;9.270;2022-09-24T16:23:25;17.80;95.80
802;DHT22;383;48.766;9.270;2022-09-24T16:25:56;17.70;96.00
802;DHT22;383;48.766;9.270;2022-09-24T16:28:24;17.70;95.90
802;DHT22;383;48.766;9.270;2022-09-24T16:30:51;17.60;96.10
802;DHT22;383;48.766;9.270;2022-09-24T16:33:18;17.50;96.40
802;DHT22;383;48.766;9.270;2022-09-24T16:35:45;17.50;96.60
802;DHT22;383;48.766;9.270;2022-09-24T16:38:13;17.40;96.80
802;DHT22;383;48.766;9.270;2022-09-24T16:40:40;17.40;96.80
802;DHT22;383;48.766;9.270;2022-09-24T16:43:06;17.40;96.90
802;DHT22;383;48.766;9.270;2022-09-24T16:45:33;17.30;97.10
802;DHT22;383;48.766;9.270;2022-09-24T16:48:00;17.30;97.20
802;DHT22;383;48.766;9.270;2022-09-24T16:50:27;17.20;97.30
802;DHT22;383;48.766;9.270;2022-09-24T16:52:53;17.20;97.40
802;DHT22;383;48.766;9.270;2022-09-24T16:55:22;17.10;97.40
802;DHT22;383;48.766;9.270;2022-09-24T16:57:50;17.10;97.50
802;DHT22;383;48.766;9.270;2022-09-24T17:00:17;17.00;97.60
802;DHT22;383;48.766;9.270;2022-09-24T17:02:43;16.90;97.60